sensor_id;sensor_type;location;lat;lon;timestamp;temperature;humidity
10905;DHT22;5505;51.450;9.254;2022-12-18T00:02:00;-10.00;99.90
10905;DHT22;5505;51.450;9.254;2022-12-18T00:04:50;-10.20;99.90
10905;DHT22;5505;51.450;9.254;2022-12-18T00:07:37;-9.00;99.90
10905;DHT22;5505;51.450;9.254;2022-12-18T00:10:24;-10.20;99.90
10905;DHT22;5505;51.450;9.254;2022-12-18T00:13:11;-10.20;99.90
10905;DHT22;5505;51.450;9.254;2022-12-18T00:16:01;-10.20;99.90
10905;DHT22;5505;51.450;9.254;2022-12-18T00:18:48;-9.90;99.90
10905;DHT22;5505;51.450;9.254;2022-12-18T00:21:37;-10.40;99.90
10905;DHT22;5505;51.450;9.254;2022-12-18T00:24:26;-10.50;99.90
10905;DHT22;5505;51.450;9.254;2022-12-18T00:27:13;-8.20;99.90
10905;DHT22;5505;51.450;9.254;2022-12-18T00:30:00;-8.20;99.90
10905;DHT22;5505;51.450;9.254;2022-12-18T00:32:47;-10.50;99.90
10905;DHT22;5505;51.450;9.254;2022-12-18T00:35:34;-10.60;99.90
10905;DHT22;5505;51.450;9.254;2022-12-18T00:38:22;-10.00;99.90
10905;DHT22;5505;51.450;9.254;2022-12-18T00:41:10;-10.60;99.90
10905;DHT22;5505;51.450;9.254;2022-12-18T00:43:58;-10.50;99.90
10905;DHT22;5505;51.450;9.254;2022-12-18T00:46:45;-9.20;99.90
10905;DHT22;5505;51.450;9.254;2022-12-18T00:49:32;-9.70;99.90
10905;DHT22;5505;51.450;9.254;2022-12-18T00:52:19;-10.20;99.90
10905;DHT22;5505;51.450;9.254;2022-12-18T00:55:07;-10.40;99.90
10905;DHT22;5505;51.450;9.254;2022-12-18T00:57:54;-10.40;99.90
10905;DHT22;5505;51.450;9.254;2022-12-18T01:00:42;-10.20;99.90
10905;DHT22;5505;51.450;9.254;2022-12-18T01:03:28;-10.30;99.90
10905;DHT22;5505;51.450;9.254;2022-12-18T01:06:16;-10.40;99.90
10905;DHT22;5505;51.450;9.254;2022-12-18T01:09:03;-9.40;99.90
10905;DHT22;5505;51.450;9.254;2022-12-18T01:11:51;-8.60;99.90
10905;DHT22;5505;51.450;9.254;2022-12-18T01:14:38;-10.40;99.90
10905;DHT22;5505;51.450;9.254;2022-12-18T01:17:25;-10.40;99.90
10905;DHT22;5505;51.450;9.254;2022-12-18T01:20:12;-10.30;99.90
10905;DHT22;5505;51.450;9.254;2022-12-18T01:22:59;-10.40;99.90
10905;DHT22;5505;51.450;9.254;2022-12-18T01:25:46;-10.40;99.90
10905;DHT22;5505;51.450;9.254;2022-12-18T01:28:34;-10.40;99.90
10905;DHT22;5505;51.450;9.254;2022-12-18T01:31:23;-10.50;99.90
10905;DHT22;5505;51.450;9.254;2022-12-18T01:34:10;-10.40;99.90
10905;DHT22;5505;51.450;9.254;2022-12-18T01:36:57;-10.10;99.90
10905;DHT22;5505;51.450;9.254;2022-12-18T01:39:43;-10.30;99.90
10905;DHT22;5505;51.450;9.254;2022-12-18T01:42:30;-10.70;99.90
10905;DHT22;5505;51.450;9.254;2022-12-18T01:45:29;-10.70;99.90
10905;DHT22;5505;51.450;9.254;2022-12-18T01:48:16;-10.70;99.90
10905;DHT22;5505;51.450;9.254;2022-12-18T01:51:03;-10.80;99.90
10905;DHT22;5505;51.450;9.254;2022-12-18T01:53:50;-10.80;99.90
10905;DHT22;5505;51.450;9.254;2022-12-18T01:56:37;-9.70;99.90
10905;DHT22;5505;51.450;9.254;2022-12-18T01:59:24;-10.60;99.90
10905;DHT22;5505;51.450;9.254;2022-12-18T02:02:12;-10.90;99.90
10905;DHT22;5505;51.450;9.254;2022-12-18T02:05:00;-10.70;99.90
10905;DHT22;5505;51.450;9.254;2022-12-18T02:07:55;-10.90;99.90
10905;DHT22;5505;51.450;9.254;2022-12-18T02:10:50;-10.10;99.90
10905;DHT22;5505;51.450;9.254;2022-12-18T02:13:45;-8.60;99.90
10905;DHT22;5505;51.450;9.254;2022-12-18T02:16:39;-10.90;99.90
10905;DHT22;5505;51.450;9.254;2022-12-18T02:19:42;-10.10;99.90
10905;DHT22;5505;51.450;9.254;2022-12-18T02:22:39;-9.10;99.90
10905;DHT22;5505;51.450;9.254;2022-12-18T02:25:52;-10.90;99.90
10905;DHT22;5505;51.450;9.254;2022-12-18T02:28:43;-11.00;99.90
10905;DHT22;5505;51.450;9.254;2022-12-18T02:31:38;-8.60;99.90
10905;DHT22;5505;51.450;9.254;2022-12-18T02:34:29;-11.00;99.90
10905;DHT22;5505;51.450;9.254;2022-12-18T02:37:18;-11.10;99.90
10905;DHT22;5505;51.450;9.254;2022-12-18T02:40:08;-11.10;99.90
10905;DHT22;5505;51.450;9.254;2022-12-18T02:43:02;-11.10;99.90
10905;DHT22;5505;51.450;9.254;2022-12-18T02:45:52;-11.20;99.90
10905;DHT22;5505;51.450;9.254;2022-12-18T02:48:39;-11.20;99.90
10905;DHT22;5505;51.450;9.254;2022-12-18T02:51:30;-11.20;99.90
10905;DHT22;5505;51.450;9.254;2022-12-18T02:54:26;-11.10;99.90
10905;DHT22;5505;51.450;9.254;2022-12-18T02:57:23;-11.10;99.90
10905;DHT22;5505;51.450;9.254;2022-12-18T03:00:15;-11.10;99.90
10905;DHT22;5505;51.450;9.254;2022-12-18T03:03:06;-10.10;99.90
10905;DHT22;5505;51.450;9.254;2022-12-18T03:05:57;-11.20;99.90
10905;DHT22;5505;51.450;9.254;2022-12-18T03:08:49;-11.20;99.90
10905;DHT22;5505;51.450;9.254;2022-12-18T03:11:41;-11.30;99.90
10905;DHT22;5505;51.450;9.254;2022-12-18T03:14:48;-9.00;99.90
10905;DHT22;5505;51.450;9.254;2022-12-18T03:17:40;-11.20;99.90
10905;DHT22;5505;51.450;9.254;2022-12-18T03:20:29;-11.10;99.90
10905;DHT22;5505;51.450;9.254;2022-12-18T03:23:20;-11.10;99.90
10905;DHT22;5505;51.450;9.254;2022-12-18T03:26:10;-10.00;99.90
10905;DHT22;5505;51.450;9.254;2022-12-18T03:29:00;-11.10;99.90
10905;DHT22;5505;51.450;9.254;2022-12-18T03:31:54;-11.10;99.90
10905;DHT22;5505;51.450;9.254;2022-12-18T03:34:46;-10.90;99.90
10905;DHT22;5505;51.450;9.254;2022-12-18T03:37:34;-10.10;99.90
10905;DHT22;5505;51.450;9.254;2022-12-18T03:40:26;-10.90;99.90
10905;DHT22;5505;51.450;9.254;2022-12-18T03:43:20;-10.60;99.90
10905;DHT22;5505;51.450;9.254;2022-12-18T03:46:15;-10.90;99.90
10905;DHT22;5505;51.450;9.254;2022-12-18T03:49:09;-10.90;99.90
10905;DHT22;5505;51.450;9.254;2022-12-18T03:52:03;-10.10;99.90
10905;DHT22;5505;51.450;9.254;2022-12-18T03:54:51;-10.50;99.90
10905;DHT22;5505;51.450;9.254;2022-12-18T03:57:39;-10.80;99.90
10905;DHT22;5505;51.450;9.254;2022-12-18T04:00:28;-10.40;99.90
10905;DHT22;5505;51.450;9.254;2022-12-18T04:03:16;-10.60;99.90
10905;DHT22;5505;51.450;9.254;2022-12-18T04:06:05;-10.80;99.90
10905;DHT22;5505;51.450;9.254;2022-12-18T04:08:54;-10.90;99.90
10905;DHT22;5505;51.450;9.254;2022-12-18T04:11:41;-10.90;99.90
10905;DHT22;5505;51.450;9.254;2022-12-18T04:14:29;-10.30;99.90
10905;DHT22;5505;51.450;9.254;2022-12-18T04:17:15;-11.00;99.90
10905;DHT22;5505;51.450;9.254;2022-12-18T04:20:03;-10.40;99.90
10905;DHT22;5505;51.450;9.254;2022-12-18T04:22:49;-11.10;99.90
10905;DHT22;5505;51.450;9.254;2022-12-18T04:25:38;-9.60;99.90
10905;DHT22;5505;51.450;9.254;2022-12-18T04:28:24;-10.50;99.90
10905;DHT22;5505;51.450;9.254;2022-12-18T04:31:11;-9.70;99.90
10905;DHT22;5505;51.450;9.254;2022-12-18T04:33:58;-11.10;99.90
10905;DHT22;5505;51.450;9.254;2022-12-18T04:36:45;-9.70;99.90
10905;DHT22;5505;51.450;9.254;2022-12-18T04:39:32;-11.10;99.90
10905;DHT22;5505;51.450;9.254;2022-12-18T04:42:20;-11.00;99.90
10905;DHT22;5505;51.450;9.254;2022-12-18T04:45:07;-9.80;99.90
10905;DHT22;5505;51.450;9.254;2022-12-18T04:47:54;-11.20;99.90
10905;DHT22;5505;51.450;9.254;2022-12-18T04:50:43;-9.10;99.90
10905;DHT22;5505;51.450;9.254;2022-12-18T04:53:30;-11.40;99.90
10905;DHT22;5505;51.450;9.254;2022-12-18T04:56:17;-9.90;99.90
10905;DHT22;5505;51.450;9.254;2022-12-18T04:59:05;-9.40;99.90
10905;DHT22;5505;51.450;9.254;2022-12-18T05:01:52;-11.40;99.90
10905;DHT22;5505;51.450;9.254;2022-12-18T05:04:39;-11.30;99.90
10905;DHT22;5505;51.450;9.254;2022-12-18T05:07:25;-11.40;99.90
10905;DHT22;5505;51.450;9.254;2022-12-18T05:10:12;-11.30;99.90
10905;DHT22;5505;51.450;9.254;2022-12-18T05:12:59;-11.40;99.90
10905;DHT22;5505;51.450;9.254;2022-12-18T05:15:53;-11.40;99.90
10905;DHT22;5505;51.450;9.254;2022-12-18T05:18:40;-11.30;99.90
10905;DHT22;5505;51.450;9.254;2022-12-18T05:21:27;-11.40;99.90
10905;DHT22;5505;51.450;9.254;2022-12-18T05:24:14;-11.40;99.90
10905;DHT22;5505;51.450;9.254;2022-12-18T05:27:01;-11.40;99.90
10905;DHT22;5505;51.450;9.254;2022-12-18T05:29:48;-11.40;99.90
10905;DHT22;5505;51.450;9.254;2022-12-18T05:32:36;-11.40;99.90
10905;DHT22;5505;51.450;9.254;2022-12-18T05:35:23;-8.90;99.90
10905;DHT22;5505;51.450;9.254;2022-12-18T05:38:09;-11.60;99.90
10905;DHT22;5505;51.450;9.254;2022-12-18T05:40:57;-10.50;99.90
10905;DHT22;5505;51.450;9.254;2022-12-18T05:43:43;-11.50;99.90
10905;DHT22;5505;51.450;9.254;2022-12-18T05:46:30;-10.70;99.90
10905;DHT22;5505;51.450;9.254;2022-12-18T05:49:18;-11.20;99.90
10905;DHT22;5505;51.450;9.254;2022-12-18T05:52:05;-11.50;99.90
10905;DHT22;5505;51.450;9.254;2022-12-18T05:54:52;-11.60;99.90
10905;DHT22;5505;51.450;9.254;2022-12-18T05:57:39;-11.50;99.90
10905;DHT22;5505;51.450;9.254;2022-12-18T06:00:26;-11.50;99.90
10905;DHT22;5505;51.450;9.254;2022-12-18T06:03:13;-10.90;99.90
10905;DHT22;5505;51.450;9.254;2022-12-18T06:06:01;-11.30;99.90
10905;DHT22;5505;51.450;9.254;2022-12-18T06:08:49;-11.40;99.90
10905;DHT22;5505;51.450;9.254;2022-12-18T06:11:37;-9.90;99.90
10905;DHT22;5505;51.450;9.254;2022-12-18T06:14:24;-11.40;99.90
10905;DHT22;5505;51.450;9.254;2022-12-18T06:17:11;-11.40;99.90
10905;DHT22;5505;51.450;9.254;2022-12-18T06:19:58;-11.10;99.90
10905;DHT22;5505;51.450;9.254;2022-12-18T06:22:46;-10.90;99.90
10905;DHT22;5505;51.450;9.254;2022-12-18T06:25:33;-10.30;99.90
10905;DHT22;5505;51.450;9.254;2022-12-18T06:28:20;-11.20;99.90
10905;DHT22;5505;51.450;9.254;2022-12-18T06:31:07;-11.10;99.90
10905;DHT22;5505;51.450;9.254;2022-12-18T06:33:54;-10.70;99.90
10905;DHT22;5505;51.450;9.254;2022-12-18T06:36:41;-11.20;99.90
10905;DHT22;5505;51.450;9.254;2022-12-18T06:39:29;-11.10;99.90
10905;DHT22;5505;51.450;9.254;2022-12-18T06:42:16;-11.30;99.90
10905;DHT22;5505;51.450;9.254;2022-12-18T06:45:03;-11.10;99.90
10905;DHT22;5505;51.450;9.254;2022-12-18T06:47:50;-11.30;99.90
10905;DHT22;5505;51.450;9.254;2022-12-18T06:50:42;-11.30;99.90
10905;DHT22;5505;51.450;9.254;2022-12-18T06:53:28;-13.20;99.90
10905;DHT22;5505;51.450;9.254;2022-12-18T06:56:17;-11.40;99.90
10905;DHT22;5505;51.450;9.254;2022-12-18T06:59:04;-11.20;99.90
10905;DHT22;5505;51.450;9.254;2022-12-18T07:01:51;-9.60;99.90
10905;DHT22;5505;51.450;9.254;2022-12-18T07:04:37;-11.50;99.90
10905;DHT22;5505;51.450;9.254;2022-12-18T07:07:24;-11.50;99.90
10905;DHT22;5505;51.450;9.254;2022-12-18T07:10:11;-11.50;99.90
10905;DHT22;5505;51.450;9.254;2022-12-18T07:12:59;-13.20;99.90
10905;DHT22;5505;51.450;9.254;2022-12-18T07:15:46;-10.10;99.90
10905;DHT22;5505;51.450;9.254;2022-12-18T07:18:33;-10.50;99.90
10905;DHT22;5505;51.450;9.254;2022-12-18T07:21:20;-11.50;99.90
10905;DHT22;5505;51.450;9.254;2022-12-18T07:24:07;-11.50;99.90
10905;DHT22;5505;51.450;9.254;2022-12-18T07:26:54;-11.50;99.90
10905;DHT22;5505;51.450;9.254;2022-12-18T07:29:42;-10.50;99.90
10905;DHT22;5505;51.450;9.254;2022-12-18T07:32:30;-11.00;99.90
10905;DHT22;5505;51.450;9.254;2022-12-18T07:35:17;-11.70;99.90
10905;DHT22;5505;51.450;9.254;2022-12-18T07:38:04;-10.50;99.90
10905;DHT22;5505;51.450;9.254;2022-12-18T07:40:51;-11.80;99.90
10905;DHT22;5505;51.450;9.254;2022-12-18T07:43:39;-11.90;99.90
10905;DHT22;5505;51.450;9.254;2022-12-18T07:46:27;-11.60;99.90
10905;DHT22;5505;51.450;9.254;2022-12-18T07:49:14;-11.90;99.90
10905;DHT22;5505;51.450;9.254;2022-12-18T07:52:01;-11.80;99.90
10905;DHT22;5505;51.450;9.254;2022-12-18T07:54:48;-12.00;99.90
10905;DHT22;5505;51.450;9.254;2022-12-18T07:57:35;-11.90;99.90
10905;DHT22;5505;51.450;9.254;2022-12-18T08:00:22;-9.20;99.90
10905;DHT22;5505;51.450;9.254;2022-12-18T08:03:16;-10.60;99.90
10905;DHT22;5505;51.450;9.254;2022-12-18T08:06:05;-11.40;99.90
10905;DHT22;5505;51.450;9.254;2022-12-18T08:08:52;-11.80;99.90
10905;DHT22;5505;51.450;9.254;2022-12-18T08:11:39;-11.80;99.90
10905;DHT22;5505;51.450;9.254;2022-12-18T08:14:26;-11.60;99.90
10905;DHT22;5505;51.450;9.254;2022-12-18T08:17:13;-11.30;99.90
10905;DHT22;5505;51.450;9.254;2022-12-18T08:20:01;-11.10;99.90
10905;DHT22;5505;51.450;9.254;2022-12-18T08:22:48;-11.00;99.90
10905;DHT22;5505;51.450;9.254;2022-12-18T08:25:35;-10.90;99.90
10905;DHT22;5505;51.450;9.254;2022-12-18T08:28:22;-10.60;99.90
10905;DHT22;5505;51.450;9.254;2022-12-18T08:31:09;-11.00;99.90
10905;DHT22;5505;51.450;9.254;2022-12-18T08:33:56;-10.80;99.90
10905;DHT22;5505;51.450;9.254;2022-12-18T08:36:45;-10.90;99.90
10905;DHT22;5505;51.450;9.254;2022-12-18T08:39:31;-10.10;99.90
10905;DHT22;5505;51.450;9.254;2022-12-18T08:42:20;-10.80;99.90
10905;DHT22;5505;51.450;9.254;2022-12-18T08:48:11;-10.80;99.90
10905;DHT22;5505;51.450;9.254;2022-12-18T08:50:59;-10.80;99.90
10905;DHT22;5505;51.450;9.254;2022-12-18T08:53:47;-10.70;99.90
10905;DHT22;5505;51.450;9.254;2022-12-18T08:56:34;-10.70;99.90
10905;DHT22;5505;51.450;9.254;2022-12-18T08:59:21;-10.30;99.90
10905;DHT22;5505;51.450;9.254;2022-12-18T09:02:10;-9.10;99.90
10905;DHT22;5505;51.450;9.254;2022-12-18T09:04:56;-10.50;99.90
10905;DHT22;5505;51.450;9.254;2022-12-18T09:07:43;-10.20;99.90
10905;DHT22;5505;51.450;9.254;2022-12-18T09:10:31;-7.30;99.90
10905;DHT22;5505;51.450;9.254;2022-12-18T09:13:19;-8.70;99.90
10905;DHT22;5505;51.450;9.254;2022-12-18T09:16:06;-9.80;99.90
10905;DHT22;5505;51.450;9.254;2022-12-18T09:18:53;-9.60;99.90
10905;DHT22;5505;51.450;9.254;2022-12-18T09:21:47;-9.60;99.90
10905;DHT22;5505;51.450;9.254;2022-12-18T09:24:34;-9.30;99.90
10905;DHT22;5505;51.450;9.254;2022-12-18T09:27:22;-9.10;99.90
10905;DHT22;5505;51.450;9.254;2022-12-18T09:30:10;-8.90;99.90
10905;DHT22;5505;51.450;9.254;2022-12-18T09:32:57;-8.70;99.90
10905;DHT22;5505;51.450;9.254;2022-12-18T09:35:45;-6.20;99.90
10905;DHT22;5505;51.450;9.254;2022-12-18T09:38:32;-8.40;99.90
10905;DHT22;5505;51.450;9.254;2022-12-18T09:41:42;-8.30;99.90
10905;DHT22;5505;51.450;9.254;2022-12-18T09:44:34;-8.30;99.90
10905;DHT22;5505;51.450;9.254;2022-12-18T09:47:25;-8.20;99.90
10905;DHT22;5505;51.450;9.254;2022-12-18T09:50:22;-7.00;99.90
10905;DHT22;5505;51.450;9.254;2022-12-18T09:53:14;-8.10;99.90
10905;DHT22;5505;51.450;9.254;2022-12-18T09:56:04;-8.00;99.90
10905;DHT22;5505;51.450;9.254;2022-12-18T09:58:56;-7.90;99.90
10905;DHT22;5505;51.450;9.254;2022-12-18T10:01:45;-7.80;99.90
10905;DHT22;5505;51.450;9.254;2022-12-18T10:04:32;-7.60;99.90
10905;DHT22;5505;51.450;9.254;2022-12-18T10:07:22;-6.30;99.90
10905;DHT22;5505;51.450;9.254;2022-12-18T10:10:23;-7.10;99.90
10905;DHT22;5505;51.450;9.254;2022-12-18T10:13:22;-7.00;99.90
10905;DHT22;5505;51.450;9.254;2022-12-18T10:16:15;-6.80;99.90
10905;DHT22;5505;51.450;9.254;2022-12-18T10:19:20;-6.50;99.90
10905;DHT22;5505;51.450;9.254;2022-12-18T10:22:15;-6.20;99.90
10905;DHT22;5505;51.450;9.254;2022-12-18T10:25:16;-6.20;99.90
10905;DHT22;5505;51.450;9.254;2022-12-18T10:28:10;-6.10;99.90
10905;DHT22;5505;51.450;9.254;2022-12-18T10:30:57;-6.00;99.90
10905;DHT22;5505;51.450;9.254;2022-12-18T10:33:44;-6.00;99.90
10905;DHT22;5505;51.450;9.254;2022-12-18T10:36:32;-5.90;99.90
10905;DHT22;5505;51.450;9.254;2022-12-18T10:39:21;-5.90;99.90
10905;DHT22;5505;51.450;9.254;2022-12-18T10:42:11;-5.80;99.90
10905;DHT22;5505;51.450;9.254;2022-12-18T10:45:03;-5.80;99.90
10905;DHT22;5505;51.450;9.254;2022-12-18T10:47:50;-5.70;99.90
10905;DHT22;5505;51.450;9.254;2022-12-18T10:50:37;-3.70;99.90
10905;DHT22;5505;51.450;9.254;2022-12-18T10:53:27;-5.60;99.90
10905;DHT22;5505;51.450;9.254;2022-12-18T10:56:20;-5.60;99.90
10905;DHT22;5505;51.450;9.254;2022-12-18T10:59:08;-5.50;99.90
10905;DHT22;5505;51.450;9.254;2022-12-18T11:01:57;-5.40;99.90
10905;DHT22;5505;51.450;9.254;2022-12-18T11:04:52;-5.30;99.90
10905;DHT22;5505;51.450;9.254;2022-12-18T11:07:48;-5.30;99.90
10905;DHT22;5505;51.450;9.254;2022-12-18T11:10:38;-5.30;99.90
10905;DHT22;5505;51.450;9.254;2022-12-18T11:13:28;-5.30;99.90
10905;DHT22;5505;51.450;9.254;2022-12-18T11:16:18;-5.40;99.90
10905;DHT22;5505;51.450;9.254;2022-12-18T11:19:19;-5.40;99.90
10905;DHT22;5505;51.450;9.254;2022-12-18T11:22:19;-2.90;99.90
10905;DHT22;5505;51.450;9.254;2022-12-18T11:25:17;-5.40;99.90
10905;DHT22;5505;51.450;9.254;2022-12-18T11:28:26;-5.40;99.90
10905;DHT22;5505;51.450;9.254;2022-12-18T11:31:24;-5.40;99.90
10905;DHT22;5505;51.450;9.254;2022-12-18T11:34:15;-5.20;99.90
10905;DHT22;5505;51.450;9.254;2022-12-18T11:37:04;-5.20;99.90
10905;DHT22;5505;51.450;9.254;2022-12-18T11:39:55;-5.10;99.90
10905;DHT22;5505;51.450;9.254;2022-12-18T11:42:48;-5.00;99.90
10905;DHT22;5505;51.450;9.254;2022-12-18T11:45:41;-5.00;99.90
10905;DHT22;5505;51.450;9.254;2022-12-18T11:48:33;-4.90;99.90
10905;DHT22;5505;51.450;9.254;2022-12-18T11:51:25;-4.90;99.90
10905;DHT22;5505;51.450;9.254;2022-12-18T11:54:14;-4.90;99.90
10905;DHT22;5505;51.450;9.254;2022-12-18T11:57:06;-4.40;99.90
10905;DHT22;5505;51.450;9.254;2022-12-18T12:00:03;-4.90;99.90
10905;DHT22;5505;51.450;9.254;2022-12-18T12:03:11;-4.70;99.90
10905;DHT22;5505;51.450;9.254;2022-12-18T12:06:08;-4.70;99.90
10905;DHT22;5505;51.450;9.254;2022-12-18T12:09:07;-4.60;99.90
10905;DHT22;5505;51.450;9.254;2022-12-18T12:12:13;-4.50;99.90
10905;DHT22;5505;51.450;9.254;2022-12-18T12:15:13;-4.40;99.90
10905;DHT22;5505;51.450;9.254;2022-12-18T12:18:13;-4.30;99.90
10905;DHT22;5505;51.450;9.254;2022-12-18T12:21:12;-4.20;99.90
10905;DHT22;5505;51.450;9.254;2022-12-18T12:24:12;-4.10;99.90
10905;DHT22;5505;51.450;9.254;2022-12-18T12:27:10;-2.40;99.90
10905;DHT22;5505;51.450;9.254;2022-12-18T12:30:04;-3.90;99.90
10905;DHT22;5505;51.450;9.254;2022-12-18T12:33:05;-3.80;99.90
10905;DHT22;5505;51.450;9.254;2022-12-18T12:36:05;-3.80;99.90
10905;DHT22;5505;51.450;9.254;2022-12-18T12:38:55;-3.80;99.90
10905;DHT22;5505;51.450;9.254;2022-12-18T12:41:45;-3.80;99.90
10905;DHT22;5505;51.450;9.254;2022-12-18T12:44:53;-3.70;99.90
10905;DHT22;5505;51.450;9.254;2022-12-18T12:47:41;-3.80;99.90
10905;DHT22;5505;51.450;9.254;2022-12-18T12:50:34;-3.70;99.90
10905;DHT22;5505;51.450;9.254;2022-12-18T12:53:27;-3.70;99.90
10905;DHT22;5505;51.450;9.254;2022-12-18T12:56:17;-3.70;99.90
10905;DHT22;5505;51.450;9.254;2022-12-18T12:59:12;-3.60;99.90
10905;DHT22;5505;51.450;9.254;2022-12-18T13:02:05;-3.40;99.90
10905;DHT22;5505;51.450;9.254;2022-12-18T13:04:59;-3.30;99.90
10905;DHT22;5505;51.450;9.254;2022-12-18T13:07:51;-3.20;99.90
10905;DHT22;5505;51.450;9.254;2022-12-18T13:10:42;-3.20;99.90
10905;DHT22;5505;51.450;9.254;2022-12-18T13:13:48;-3.10;99.90
10905;DHT22;5505;51.450;9.254;2022-12-18T13:16:34;-3.20;99.90
10905;DHT22;5505;51.450;9.254;2022-12-18T13:19:22;-3.10;99.90
10905;DHT22;5505;51.450;9.254;2022-12-18T13:22:21;-3.20;99.90
10905;DHT22;5505;51.450;9.254;2022-12-18T13:25:32;-3.20;99.90
10905;DHT22;5505;51.450;9.254;2022-12-18T13:28:24;-3.20;99.90
10905;DHT22;5505;51.450;9.254;2022-12-18T13:35:37;-3.10;99.90
10905;DHT22;5505;51.450;9.254;2022-12-18T13:38:34;-3.10;99.90
10905;DHT22;5505;51.450;9.254;2022-12-18T13:41:26;-3.20;99.90
10905;DHT22;5505;51.450;9.254;2022-12-18T13:44:24;-3.20;99.90
10905;DHT22;5505;51.450;9.254;2022-12-18T13:47:28;-1.00;99.90
10905;DHT22;5505;51.450;9.254;2022-12-18T13:50:25;-3.20;99.90
10905;DHT22;5505;51.450;9.254;2022-12-18T13:53:20;-3.20;99.90
10905;DHT22;5505;51.450;9.254;2022-12-18T13:56:08;-3.30;99.90
10905;DHT22;5505;51.450;9.254;2022-12-18T13:59:33;-3.30;99.90
10905;DHT22;5505;51.450;9.254;2022-12-18T14:02:22;-3.40;99.90
10905;DHT22;5505;51.450;9.254;2022-12-18T14:05:21;-3.40;99.90
10905;DHT22;5505;51.450;9.254;2022-12-18T14:08:10;-3.40;99.90
10905;DHT22;5505;51.450;9.254;2022-12-18T14:10:59;-3.40;99.90
10905;DHT22;5505;51.450;9.254;2022-12-18T14:13:47;-3.40;99.90
10905;DHT22;5505;51.450;9.254;2022-12-18T14:16:35;-3.40;99.90
10905;DHT22;5505;51.450;9.254;2022-12-18T14:19:23;-3.50;99.90
10905;DHT22;5505;51.450;9.254;2022-12-18T14:22:19;-3.50;99.90
10905;DHT22;5505;51.450;9.254;2022-12-18T14:25:19;-3.50;99.90
10905;DHT22;5505;51.450;9.254;2022-12-18T14:28:13;-3.50;99.90
10905;DHT22;5505;51.450;9.254;2022-12-18T14:31:02;-3.50;99.90
10905;DHT22;5505;51.450;9.254;2022-12-18T14:33:50;-3.50;99.90
10905;DHT22;5505;51.450;9.254;2022-12-18T14:36:37;-3.50;99.90
10905;DHT22;5505;51.450;9.254;2022-12-18T14:39:25;-3.50;99.90
10905;DHT22;5505;51.450;9.254;2022-12-18T14:42:12;-3.50;99.90
10905;DHT22;5505;51.450;9.254;2022-12-18T14:45:33;-3.40;99.90
10905;DHT22;5505;51.450;9.254;2022-12-18T14:48:24;-3.50;99.90
10905;DHT22;5505;51.450;9.254;2022-12-18T14:51:20;-3.50;99.90
10905;DHT22;5505;51.450;9.254;2022-12-18T14:54:15;-3.10;99.90
10905;DHT22;5505;51.450;9.254;2022-12-18T14:57:05;-3.40;99.90
10905;DHT22;5505;51.450;9.254;2022-12-18T14:59:52;-3.40;99.90
10905;DHT22;5505;51.450;9.254;2022-12-18T15:02:39;-3.40;99.90
10905;DHT22;5505;51.450;9.254;2022-12-18T15:05:27;-3.30;99.90
10905;DHT22;5505;51.450;9.254;2022-12-18T15:08:34;-3.50;99.90
10905;DHT22;5505;51.450;9.254;2022-12-18T15:11:30;-3.40;99.90
10905;DHT22;5505;51.450;9.254;2022-12-18T15:14:38;-3.50;99.90
10905;DHT22;5505;51.450;9.254;2022-12-18T15:17:26;-3.50;99.90
10905;DHT22;5505;51.450;9.254;2022-12-18T15:20:14;-3.50;99.90
10905;DHT22;5505;51.450;9.254;2022-12-18T15:23:01;-3.60;99.90
10905;DHT22;5505;51.450;9.254;2022-12-18T15:25:57;-3.50;99.90
10905;DHT22;5505;51.450;9.254;2022-12-18T15:28:46;-3.50;99.90
10905;DHT22;5505;51.450;9.254;2022-12-18T15:31:35;-3.50;99.90
10905;DHT22;5505;51.450;9.254;2022-12-18T15:34:22;-3.50;99.90
10905;DHT22;5505;51.450;9.254;2022-12-18T15:37:09;-3.40;99.90
10905;DHT22;5505;51.450;9.254;2022-12-18T15:39:56;-3.40;99.90
10905;DHT22;5505;51.450;9.254;2022-12-18T15:42:44;-3.30;99.90
10905;DHT22;5505;51.450;9.254;2022-12-18T15:45:49;-3.30;99.90
10905;DHT22;5505;51.450;9.254;2022-12-18T15:48:39;-3.30;99.90
10905;DHT22;5505;51.450;9.254;2022-12-18T15:51:28;-2.20;99.90
10905;DHT22;5505;51.450;9.254;2022-12-18T15:54:16;-3.40;99.90
10905;DHT22;5505;51.450;9.254;2022-12-18T15:57:23;-3.40;99.90
10905;DHT22;5505;51.450;9.254;2022-12-18T16:00:13;-3.50;99.90
10905;DHT22;5505;51.450;9.254;2022-12-18T16:03:00;-3.50;99.90
10905;DHT22;5505;51.450;9.254;2022-12-18T16:05:47;-3.50;99.90
10905;DHT22;5505;51.450;9.254;2022-12-18T16:08:34;-3.50;99.90
10905;DHT22;5505;51.450;9.254;2022-12-18T16:11:22;-3.50;99.90
10905;DHT22;5505;51.450;9.254;2022-12-18T16:14:25;-3.60;99.90
10905;DHT22;5505;51.450;9.254;2022-12-18T16:17:14;-3.60;99.90
10905;DHT22;5505;51.450;9.254;2022-12-18T16:20:01;-3.60;99.90
10905;DHT22;5505;51.450;9.254;2022-12-18T16:22:48;-3.60;99.90
10905;DHT22;5505;51.450;9.254;2022-12-18T16:25:35;-3.60;99.90
10905;DHT22;5505;51.450;9.254;2022-12-18T16:28:22;-3.60;99.90
10905;DHT22;5505;51.450;9.254;2022-12-18T16:31:08;-3.60;99.90
10905;DHT22;5505;51.450;9.254;2022-12-18T16:34:13;-4.80;99.90
10905;DHT22;5505;51.450;9.254;2022-12-18T16:37:05;-3.50;99.90
10905;DHT22;5505;51.450;9.254;2022-12-18T16:39:52;-3.50;99.90
10905;DHT22;5505;51.450;9.254;2022-12-18T16:42:40;-2.60;99.90
10905;DHT22;5505;51.450;9.254;2022-12-18T16:45:27;-3.50;99.90
10905;DHT22;5505;51.450;9.254;2022-12-18T16:48:18;-2.90;99.90
10905;DHT22;5505;51.450;9.254;2022-12-18T16:51:06;-3.50;99.90
10905;DHT22;5505;51.450;9.254;2022-12-18T16:53:53;-3.50;99.90
10905;DHT22;5505;51.450;9.254;2022-12-18T16:56:40;-3.50;99.90
10905;DHT22;5505;51.450;9.254;2022-12-18T16:59:27;-3.60;99.90
10905;DHT22;5505;51.450;9.254;2022-12-18T17:02:16;-3.50;99.90
10905;DHT22;5505;51.450;9.254;2022-12-18T17:05:04;-3.50;99.90
10905;DHT22;5505;51.450;9.254;2022-12-18T17:07:53;-3.50;99.90
10905;DHT22;5505;51.450;9.254;2022-12-18T17:10:39;-3.50;99.90
10905;DHT22;5505;51.450;9.254;2022-12-18T17:13:26;-3.60;99.90
10905;DHT22;5505;51.450;9.254;2022-12-18T17:16:13;-3.60;99.90
10905;DHT22;5505;51.450;9.254;2022-12-18T17:19:02;-3.60;99.90
10905;DHT22;5505;51.450;9.254;2022-12-18T17:21:50;-3.60;99.90
10905;DHT22;5505;51.450;9.254;2022-12-18T17:24:38;-3.50;99.90
10905;DHT22;5505;51.450;9.254;2022-12-18T17:27:24;-3.50;99.90
10905;DHT22;5505;51.450;9.254;2022-12-18T17:30:12;-3.50;99.90
10905;DHT22;5505;51.450;9.254;2022-12-18T17:32:59;-3.60;99.90
10905;DHT22;5505;51.450;9.254;2022-12-18T17:35:45;-3.50;99.90
10905;DHT22;5505;51.450;9.254;2022-12-18T17:38:32;-3.60;99.90
10905;DHT22;5505;51.450;9.254;2022-12-18T17:41:21;-3.50;99.90
10905;DHT22;5505;51.450;9.254;2022-12-18T17:44:09;-3.50;99.90
10905;DHT22;5505;51.450;9.254;2022-12-18T17:46:55;-3.60;99.90
10905;DHT22;5505;51.450;9.254;2022-12-18T17:49:42;-3.70;99.90
10905;DHT22;5505;51.450;9.254;2022-12-18T17:52:32;-3.70;99.90
10905;DHT22;5505;51.450;9.254;2022-12-18T17:55:19;-3.70;99.90
10905;DHT22;5505;51.450;9.254;2022-12-18T17:58:07;-4.60;99.90
10905;DHT22;5505;51.450;9.254;2022-12-18T18:00:54;-3.70;99.90
10905;DHT22;5505;51.450;9.254;2022-12-18T18:03:41;-3.80;99.90
10905;DHT22;5505;51.450;9.254;2022-12-18T18:06:27;-3.80;99.90
10905;DHT22;5505;51.450;9.254;2022-12-18T18:09:14;-3.80;99.90
10905;DHT22;5505;51.450;9.254;2022-12-18T18:12:01;-3.90;99.90
10905;DHT22;5505;51.450;9.254;2022-12-18T18:15:07;-3.90;99.90